Time;durP1;ratioP1;P1;durP2;ratioP2;P2;SDS_P1;SDS_P2;PMS_P1;PMS_P2;Temp;Humidity;BMP_temperature;BMP_pressure;BME280_temperature;BME280_humidity;BME280_pressure;Samples;Min_cycle;Max_cycle;Signal;HPM_P1;HPM_P2
2021/12/30 00:01:44;;;;;;;;;1.00;1.00;;;;;15.97;76.38;101190.09;5039544;28;45439;-51
2021/12/30 00:04:09;;;;;;;;;1.00;1.00;;;;;15.95;75.99;101179.53;5039541;28;45265;-49
2021/12/30 00:06:39;;;;;;;;;1.00;0.00;;;;;15.98;76.07;101186.53;5039554;28;45213;-51
2021/12/30 00:09:10;;;;;;;;;1.33;1.33;;;;;15.97;76.28;101198.03;5039351;28;45563;-52
2021/12/30 00:11:36;;;;;;;;;1.00;1.00;;;;;15.94;76.11;101196.34;5039600;28;45218;-49
2021/12/30 00:14:03;;;;;;;;;1.00;0.33;;;;;15.95;76.12;101194.56;5039313;28;45459;-52
2021/12/30 00:16:28;;;;;;;;;0.00;0.00;;;;;15.89;75.88;101191.16;5039056;28;46888;-50
2021/12/30 00:18:53;;;;;;;;;1.00;1.00;;;;;15.92;76.09;101209.66;5039130;28;45211;-49
2021/12/30 00:21:20;;;;;;;;;1.00;1.00;;;;;15.92;76.25;101196.41;5039588;28;45289;-48
2021/12/30 00:23:46;;;;;;;;;1.00;1.00;;;;;15.95;76.26;101200.75;5039204;28;45499;-51
2021/12/30 00:26:12;;;;;;;;;2.00;1.00;;;;;15.93;76.22;101200.75;5039335;28;45471;-50
2021/12/30 00:28:37;;;;;;;;;2.00;2.00;;;;;15.92;76.32;101195.50;5039169;28;45252;-48
2021/12/30 00:31:03;;;;;;;;;0.67;0.67;;;;;15.90;76.21;101189.41;5046879;28;45265;-49
2021/12/30 00:33:28;;;;;;;;;1.00;1.00;;;;;15.92;76.03;101191.09;5059251;28;45604;-51
2021/12/30 00:35:54;;;;;;;;;0.67;0.67;;;;;15.90;76.28;101198.22;5059341;28;45288;-50
2021/12/30 00:38:21;;;;;;;;;1.67;1.67;;;;;15.92;76.26;101193.75;5047965;28;45277;-53
2021/12/30 00:40:46;;;;;;;;;0.00;0.00;;;;;15.90;76.09;101200.88;5024615;28;45294;-52
2021/12/30 00:43:12;;;;;;;;;1.00;1.00;;;;;15.87;76.29;101213.31;5042359;28;45550;-52
2021/12/30 00:45:38;;;;;;;;;0.33;0.00;;;;;15.90;76.31;101207.97;5035266;28;47446;-50
2021/12/30 00:48:05;;;;;;;;;1.00;1.00;;;;;15.91;76.00;101202.59;5048486;28;45174;-51
2021/12/30 00:50:30;;;;;;;;;0.67;0.67;;;;;15.92;76.23;101216.72;5042719;28;45332;-52
2021/12/30 00:52:58;;;;;;;;;0.67;0.67;;;;;15.90;76.29;101207.97;5042148;28;45472;-51
2021/12/30 00:55:24;;;;;;;;;0.00;0.00;;;;;15.91;76.44;101229.09;5042214;28;46188;-53
2021/12/30 00:57:50;;;;;;;;;0.67;0.67;;;;;15.87;76.24;101223.94;5042122;28;45396;-47
2021/12/30 01:00:18;;;;;;;;;0.67;0.67;;;;;15.87;76.54;101242.47;5042173;28;45634;-48
2021/12/30 01:02:43;;;;;;;;;0.67;0.67;;;;;15.86;76.68;101231.03;5042258;28;45237;-46
2021/12/30 01:05:10;;;;;;;;;1.00;0.33;;;;;15.86;76.02;101230.13;5041910;28;45429;-50
2021/12/30 01:07:36;;;;;;;;;2.00;1.00;;;;;15.88;76.03;101225.69;5042064;28;45401;-50
2021/12/30 01:10:04;;;;;;;;;1.00;1.00;;;;;15.87;76.54;101226.59;5024231;28;45413;-49
2021/12/30 01:12:30;;;;;;;;;1.00;1.00;;;;;15.90;76.04;101235.31;5023988;28;45448;-51
2021/12/30 01:14:55;;;;;;;;;1.00;1.00;;;;;15.89;76.33;101238.88;5041886;28;45293;-52
2021/12/30 01:17:39;;;;;;;;;0.67;0.67;;;;;15.90;76.30;101243.28;5041987;28;45333;-51
2021/12/30 01:20:06;;;;;;;;;0.00;0.00;;;;;15.87;76.19;101240.72;5042295;28;45427;-50
2021/12/30 01:22:33;;;;;;;;;0.00;0.00;;;;;15.86;76.61;101243.38;5041753;28;45443;-51
2021/12/30 01:24:59;;;;;;;;;0.00;0.00;;;;;15.86;76.23;101249.56;5023744;28;45526;-52
2021/12/30 01:27:25;;;;;;;;;0.00;0.00;;;;;15.86;76.52;101260.19;5023825;28;45298;-51
2021/12/30 01:29:51;;;;;;;;;1.00;1.00;;;;;15.84;76.48;101269.09;5041507;28;45329;-50
2021/12/30 01:32:16;;;;;;;;;1.00;1.00;;;;;15.85;76.35;101262.88;5059426;28;45285;-50
2021/12/30 01:34:42;;;;;;;;;2.00;2.00;;;;;15.83;76.42;101273.50;5061820;28;46291;-48
2021/12/30 01:37:08;;;;;;;;;0.67;0.67;;;;;15.81;76.54;101270.00;5057204;28;45380;-52
2021/12/30 01:39:37;;;;;;;;;1.33;0.00;;;;;15.79;76.63;101286.84;5041636;28;45308;-47
2021/12/30 01:42:05;;;;;;;;;0.00;0.00;;;;;15.79;76.65;101289.50;5056719;28;45519;-53
2021/12/30 01:44:32;;;;;;;;;1.00;1.00;;;;;15.80;76.71;101289.47;5049651;28;46111;-52
2021/12/30 01:46:58;;;;;;;;;1.67;1.00;;;;;15.75;76.83;101296.66;5041360;28;45521;-52
2021/12/30 01:49:24;;;;;;;;;0.33;0.33;;;;;15.72;76.84;101289.66;5040922;28;45452;-50
2021/12/30 01:51:52;;;;;;;;;0.67;0.67;;;;;15.77;77.13;101305.44;5041191;28;45219;-50
2021/12/30 01:54:17;;;;;;;;;1.33;1.33;;;;;15.78;76.73;101299.22;5041090;28;45479;-50
2021/12/30 01:56:44;;;;;;;;;0.50;0.50;;;;;15.78;77.10;101293.91;5041214;28;45206;-51
2021/12/30 01:59:10;;;;;;;;;2.00;1.67;;;;;15.77;76.77;101287.75;5041363;28;45336;-50
2021/12/30 02:01:36;;;;;;;;;2.00;1.67;;;;;15.78;76.63;101296.56;5040970;28;45452;-51
2021/12/30 02:04:02;;;;;;;;;2.33;2.33;;;;;15.79;76.69;101298.31;5023120;28;46959;-48
2021/12/30 02:06:27;;;;;;;;;3.33;1.67;;;;;15.79;76.86;101298.31;5041085;28;45332;-47
2021/12/30 02:08:54;;;;;;;;;0.67;0.33;;;;;15.72;77.00;101294.97;5041332;28;45340;-49
2021/12/30 02:11:20;;;;;;;;;2.00;0.33;;;;;15.77;76.79;101303.66;5041068;28;45289;-49
2021/12/30 02:13:49;;;;;;;;;1.00;1.00;;;;;15.76;77.15;101307.22;5041114;28;45477;-52
2021/12/30 02:16:17;;;;;;;;;2.67;2.00;;;;;15.76;76.88;101311.66;5040558;28;45355;-49
2021/12/30 02:18:42;;;;;;;;;1.00;1.00;;;;;15.77;76.96;101308.06;5023387;28;45301;-51
2021/12/30 02:21:07;;;;;;;;;1.33;1.33;;;;;15.76;76.87;101319.59;5022965;28;45537;-49
2021/12/30 02:23:35;;;;;;;;;1.33;1.33;;;;;15.78;76.92;101320.41;5041046;28;45422;-48
2021/12/30 02:26:13;;;;;;;;;2.67;0.67;;;;;15.75;77.11;101328.47;5040767;28;45305;-52
2021/12/30 02:28:39;;;;;;;;;1.00;0.00;;;;;15.73;77.29;101322.31;5040796;28;45234;-52
2021/12/30 02:31:08;;;;;;;;;2.67;1.67;;;;;15.74;76.97;101332.88;5048436;28;45194;-52
2021/12/30 02:33:34;;;;;;;;;1.33;1.00;;;;;15.73;77.13;101331.13;5060716;28;46125;-51
2021/12/30 02:36:00;;;;;;;;;2.00;2.00;;;;;15.77;77.19;101343.41;5061009;28;45388;-49
2021/12/30 02:38:26;;;;;;;;;0.67;0.67;;;;;15.79;76.98;101338.06;5045893;28;45321;-50
2021/12/30 02:40:54;;;;;;;;;2.33;1.00;;;;;15.79;76.84;101342.50;5040687;28;45352;-51
2021/12/30 02:43:25;;;;;;;;;2.00;2.00;;;;;15.76;76.82;101338.16;5040433;28;47225;-51
2021/12/30 02:45:51;;;;;;;;;1.00;1.00;;;;;15.79;76.82;101343.38;5040560;28;45336;-50
2021/12/30 02:48:22;;;;;;;;;1.33;1.33;;;;;15.79;76.60;101350.44;5040534;28;45238;-50
2021/12/30 02:50:50;;;;;;;;;2.67;1.67;;;;;15.80;76.99;101352.16;5040642;28;45330;-50
2021/12/30 02:53:16;;;;;;;;;1.33;1.33;;;;;15.80;76.80;101358.34;5040282;28;45234;-48
2021/12/30 02:55:44;;;;;;;;;0.00;0.00;;;;;15.82;77.02;101361.00;5040284;28;45254;-47
2021/12/30 02:58:11;;;;;;;;;0.33;0.33;;;;;15.82;76.78;101355.69;5022614;28;45306;-48
2021/12/30 03:00:38;;;;;;;;;2.33;0.67;;;;;15.82;76.69;101355.69;5039011;28;45313;-49
2021/12/30 03:03:04;;;;;;;;;1.00;1.00;;;;;15.83;76.67;101353.00;5022142;28;45316;-50
2021/12/30 03:05:30;;;;;;;;;1.00;1.00;;;;;15.81;76.76;101353.91;5040151;28;45526;-48
2021/12/30 03:07:57;;;;;;;;;0.00;0.00;;;;;15.85;76.75;101351.19;5022362;28;45279;-49
2021/12/30 03:10:26;;;;;;;;;2.00;1.00;;;;;15.85;76.74;101353.84;5040213;28;45316;-50
2021/12/30 03:12:56;;;;;;;;;0.00;0.00;;;;;15.85;76.20;101351.19;5022021;28;46988;-52
2021/12/30 03:15:23;;;;;;;;;1.00;1.00;;;;;15.86;76.66;101346.75;5040072;28;45258;-50
2021/12/30 03:17:50;;;;;;;;;1.33;0.00;;;;;15.86;76.43;101352.03;5040304;28;45277;-51
2021/12/30 03:20:16;;;;;;;;;0.67;0.67;;;;;15.89;76.65;101349.31;5040139;28;45340;-49
2021/12/30 03:22:43;;;;;;;;;0.67;0.67;;;;;15.88;76.59;101348.44;5039726;28;46162;-47
2021/12/30 03:25:12;;;;;;;;;0.00;0.00;;;;;15.89;76.34;101351.97;5039966;28;45349;-52
2021/12/30 03:27:38;;;;;;;;;1.00;1.00;;;;;15.90;76.17;101351.06;5022201;28;45278;-50
2021/12/30 03:30:08;;;;;;;;;1.33;0.00;;;;;15.90;76.21;101351.94;5021940;28;45306;-48
2021/12/30 03:32:34;;;;;;;;;0.00;0.00;;;;;15.93;76.43;101364.22;5041846;28;46404;-52
2021/12/30 03:35:00;;;;;;;;;0.33;0.33;;;;;15.91;76.32;101358.97;5035366;28;45273;-49
2021/12/30 03:37:25;;;;;;;;;0.00;0.00;;;;;15.92;76.30;101365.13;5053538;28;45254;-51
2021/12/30 03:39:51;;;;;;;;;0.00;0.00;;;;;15.93;76.21;101377.47;5021641;28;45382;-49
2021/12/30 03:42:17;;;;;;;;;0.00;0.00;;;;;15.93;76.12;101365.09;5040063;28;45331;-49
2021/12/30 03:44:43;;;;;;;;;1.00;1.00;;;;;15.94;76.28;101363.31;5021779;28;45261;-49
2021/12/30 03:47:13;;;;;;;;;2.00;0.00;;;;;15.95;75.94;101369.47;5040330;28;45233;-49
2021/12/30 03:49:43;;;;;;;;;0.00;0.00;;;;;15.95;76.24;101366.81;5039684;28;45262;-48
2021/12/30 03:52:09;;;;;;;;;1.67;0.00;;;;;15.96;76.00;101369.47;5039829;28;46122;-50
2021/12/30 03:54:35;;;;;;;;;0.00;0.00;;;;;15.96;76.06;101368.56;5021477;28;45372;-49
2021/12/30 03:57:00;;;;;;;;;0.00;0.00;;;;;15.97;76.08;101367.66;5040061;28;45415;-51
2021/12/30 03:59:25;;;;;;;;;1.67;0.00;;;;;15.97;75.92;101370.31;5039364;28;45512;-48
2021/12/30 04:01:51;;;;;;;;;0.33;0.33;;;;;15.98;75.91;101372.06;5039609;28;46946;-51
2021/12/30 04:04:16;;;;;;;;;0.00;0.00;;;;;15.98;76.02;101359.66;5039367;28;45475;-51
2021/12/30 04:06:42;;;;;;;;;0.00;0.00;;;;;15.99;75.86;101360.56;5039891;28;45741;-51
2021/12/30 04:09:07;;;;;;;;;0.33;0.33;;;;;15.99;75.90;101355.25;5039336;28;45297;-49
2021/12/30 04:11:34;;;;;;;;;0.00;0.00;;;;;16.02;75.74;101365.75;5040038;28;46104;-48
2021/12/30 04:14:02;;;;;;;;;0.00;0.00;;;;;16.03;75.74;101359.56;5008722;28;45491;-49
2021/12/30 04:16:27;;;;;;;;;0.67;0.67;;;;;16.05;75.67;101357.72;5042813;28;45249;-46
2021/12/30 04:18:53;;;;;;;;;0.00;0.00;;;;;16.01;75.75;101356.06;5042784;28;45527;-50
2021/12/30 04:21:20;;;;;;;;;1.00;0.67;;;;;16.04;75.85;101363.94;5024881;28;47647;-49
2021/12/30 04:23:46;;;;;;;;;0.33;0.33;;;;;16.01;75.86;101364.91;5024849;28;45390;-53
2021/12/30 04:26:12;;;;;;;;;0.00;0.00;;;;;16.03;75.67;101364.84;5025035;28;45333;-50
2021/12/30 04:28:38;;;;;;;;;0.00;0.00;;;;;16.04;75.85;101362.16;5042851;28;45328;-48
2021/12/30 04:31:04;;;;;;;;;0.00;0.00;;;;;16.01;75.80;101364.91;5032165;28;46268;-48
2021/12/30 04:33:30;;;;;;;;;0.00;0.00;;;;;16.04;75.60;101356.00;5062758;28;45272;-50
2021/12/30 04:35:56;;;;;;;;;1.00;0.00;;;;;16.04;75.73;101350.69;5044921;28;45288;-50
2021/12/30 04:38:26;;;;;;;;;0.00;0.00;;;;;16.05;75.54;101349.75;5048184;28;45456;-47
2021/12/30 04:40:52;;;;;;;;;0.67;0.00;;;;;16.04;75.55;101350.69;5042523;28;45385;-48
2021/12/30 04:43:18;;;;;;;;;0.00;0.00;;;;;16.03;75.73;101346.31;5042470;28;45412;-48
2021/12/30 04:45:44;;;;;;;;;0.00;0.00;;;;;16.02;75.69;101336.59;5042747;28;45439;-48
2021/12/30 04:48:10;;;;;;;;;2.67;1.00;;;;;16.02;75.44;101333.94;5042495;28;45254;-49
2021/12/30 04:50:36;;;;;;;;;2.00;0.67;;;;;16.03;75.63;101341.84;5042329;28;45343;-50
2021/12/30 04:53:02;;;;;;;;;1.33;0.00;;;;;16.04;75.35;101348.91;5042465;28;45306;-47
2021/12/30 04:55:27;;;;;;;;;0.00;0.00;;;;;16.04;75.54;101356.84;5024682;28;45243;-50
2021/12/30 04:57:52;;;;;;;;;0.00;0.00;;;;;16.04;75.54;101363.94;5042290;28;45257;-49
2021/12/30 05:00:18;;;;;;;;;2.33;0.00;;;;;16.02;75.76;101357.81;5042105;28;45605;-51
2021/12/30 05:05:27;;;;;;;;;0.00;0.00;;;;;16.03;75.59;101371.00;5027196;28;45237;-49
2021/12/30 05:07:53;;;;;;;;;0.67;0.00;;;;;16.03;75.27;101376.31;5042060;28;45171;-50
2021/12/30 05:10:19;;;;;;;;;0.33;0.33;;;;;16.03;75.27;101386.91;5041878;28;45373;-51
2021/12/30 05:12:45;;;;;;;;;0.00;0.00;;;;;16.00;75.44;101383.47;5041990;28;45179;-52
2021/12/30 05:15:11;;;;;;;;;1.00;1.00;;;;;16.03;75.39;101399.31;5040520;28;45356;-51
2021/12/30 05:17:37;;;;;;;;;1.33;0.00;;;;;16.03;75.29;101407.28;5040554;28;45580;-50
2021/12/30 05:20:03;;;;;;;;;1.67;0.00;;;;;16.04;75.11;101399.25;5041676;28;45290;-50
2021/12/30 05:22:29;;;;;;;;;0.67;0.67;;;;;16.03;75.19;101412.56;5041772;28;45289;-50
2021/12/30 05:24:54;;;;;;;;;1.00;1.00;;;;;16.03;75.39;101405.47;5041103;28;45358;-49
2021/12/30 05:27:20;;;;;;;;;0.00;0.00;;;;;16.04;75.32;101419.63;5042013;28;45394;-50
2021/12/30 05:29:46;;;;;;;;;2.00;0.33;;;;;16.00;75.44;101412.63;5023593;28;46037;-51
2021/12/30 05:32:12;;;;;;;;;1.00;0.00;;;;;16.01;75.36;101412.63;5058983;28;45227;-51
2021/12/30 05:34:37;;;;;;;;;1.00;0.33;;;;;15.99;75.28;101397.66;5062066;28;45444;-49
2021/12/30 05:37:03;;;;;;;;;1.67;1.67;;;;;15.99;75.42;101395.88;5057751;28;45203;-51
2021/12/30 05:39:29;;;;;;;;;0.00;0.00;;;;;15.99;75.20;101402.97;5041413;28;46268;-52
2021/12/30 05:41:55;;;;;;;;;0.67;0.67;;;;;15.97;75.00;101408.28;5041672;28;45621;-50
2021/12/30 05:44:20;;;;;;;;;0.00;0.00;;;;;15.96;75.18;101427.78;5041627;28;45481;-51
2021/12/30 05:46:46;;;;;;;;;0.67;0.67;;;;;15.92;75.31;101434.03;5041572;28;45274;-51
2021/12/30 05:49:11;;;;;;;;;3.67;0.67;;;;;15.90;75.06;101438.53;5041477;28;45308;-52
2021/12/30 05:51:36;;;;;;;;;0.67;0.33;;;;;15.86;75.37;101440.38;5041372;28;45321;-50
2021/12/30 05:54:02;;;;;;;;;2.33;0.00;;;;;15.81;75.54;101439.59;5041565;28;45296;-50
2021/12/30 05:56:27;;;;;;;;;2.33;0.67;;;;;15.80;75.38;101437.84;5041369;28;45387;-49
2021/12/30 05:58:53;;;;;;;;;1.00;1.00;;;;;15.79;75.30;101436.09;5041308;28;46682;-50
2021/12/30 06:01:18;;;;;;;;;3.00;3.00;;;;;15.73;75.23;101434.47;5041036;28;45321;-50
2021/12/30 06:03:43;;;;;;;;;2.33;1.67;;;;;15.71;75.29;101438.94;5041319;28;45386;-52
2021/12/30 06:06:09;;;;;;;;;3.00;1.00;;;;;15.66;75.24;101439.97;5041198;28;45242;-49
2021/12/30 06:08:34;;;;;;;;;2.00;2.00;;;;;15.63;75.53;101455.94;5041248;28;45335;-50
2021/12/30 06:11:01;;;;;;;;;0.67;0.67;;;;;15.59;75.66;101450.69;5040957;28;45312;-50
2021/12/30 06:13:26;;;;;;;;;1.00;0.67;;;;;15.56;75.62;101455.22;5041362;28;45230;-49
2021/12/30 06:15:51;;;;;;;;;1.67;1.00;;;;;15.54;75.26;101462.31;5040928;28;45285;-51
2021/12/30 06:18:17;;;;;;;;;3.00;1.00;;;;;15.50;75.46;101461.53;5040991;28;46228;-52
2021/12/30 06:20:42;;;;;;;;;3.00;1.00;;;;;15.47;75.44;101458.97;5023146;28;45533;-52
2021/12/30 06:23:08;;;;;;;;;0.67;0.67;;;;;15.45;75.12;101458.13;5041246;28;45310;-51
2021/12/30 06:25:33;;;;;;;;;3.00;2.00;;;;;15.38;75.31;101464.44;5040984;28;45206;-53
2021/12/30 06:27:58;;;;;;;;;2.00;1.67;;;;;15.33;75.60;101456.59;5041009;28;45245;-52
2021/12/30 06:30:24;;;;;;;;;4.67;2.00;;;;;15.31;75.27;101453.13;5042674;28;45423;-50
2021/12/30 06:32:50;;;;;;;;;2.67;2.67;;;;;15.28;75.25;101463.78;5043091;28;45342;-52
2021/12/30 06:35:15;;;;;;;;;6.00;3.67;;;;;15.21;75.42;101451.59;5042725;28;45349;-50
2021/12/30 06:37:41;;;;;;;;;4.50;2.75;;;;;15.20;75.64;101447.22;5052194;28;45864;-52
2021/12/30 06:40:09;;;;;;;;;4.67;3.67;;;;;15.15;75.26;101460.53;5040472;28;45369;-50
2021/12/30 06:42:35;;;;;;;;;4.00;4.00;;;;;15.15;75.48;101457.88;5040696;28;45316;-51
2021/12/30 06:45:00;;;;;;;;;5.33;3.33;;;;;15.12;75.64;101455.31;5040248;28;45333;-51
2021/12/30 06:47:26;;;;;;;;;3.33;2.00;;;;;15.08;75.61;101459.81;5040841;28;45299;-48
2021/12/30 06:49:52;;;;;;;;;3.33;2.33;;;;;15.03;75.62;101452.84;5040408;28;45222;-51
2021/12/30 06:52:17;;;;;;;;;4.33;2.33;;;;;15.03;75.29;101460.78;5040806;28;45231;-50
2021/12/30 06:54:43;;;;;;;;;3.00;2.00;;;;;15.01;75.37;101468.78;5040219;28;45291;-47
2021/12/30 06:57:12;;;;;;;;;2.67;2.33;;;;;14.95;75.38;101476.84;5040633;28;45452;-47
2021/12/30 06:59:38;;;;;;;;;3.67;1.67;;;;;14.91;75.76;101481.31;5039847;28;45314;-50
2021/12/30 07:02:05;;;;;;;;;5.33;2.67;;;;;14.88;75.80;101475.22;5040555;28;45409;-48
2021/12/30 07:04:31;;;;;;;;;3.67;2.33;;;;;14.86;75.48;101474.41;5040086;28;45226;-48
2021/12/30 07:06:56;;;;;;;;;3.67;2.67;;;;;14.82;75.25;101472.69;5022359;28;46153;-49
2021/12/30 07:09:22;;;;;;;;;2.00;1.67;;;;;14.79;75.65;101477.16;5040217;28;45229;-49
2021/12/30 07:11:49;;;;;;;;;5.67;3.00;;;;;14.77;75.40;101486.91;5040388;28;45638;-51
2021/12/30 07:14:19;;;;;;;;;4.00;4.00;;;;;14.73;75.42;101487.88;5039957;28;45384;-52
2021/12/30 07:16:45;;;;;;;;;10.25;6.25;;;;;14.71;75.36;101487.00;5040349;28;45427;-48
2021/12/30 07:19:11;;;;;;;;;2.67;2.67;;;;;14.71;75.25;101486.16;5021966;28;45246;-49
2021/12/30 07:21:37;;;;;;;;;9.00;4.67;;;;;14.65;75.21;101495.06;5040126;28;45210;-51
2021/12/30 07:24:03;;;;;;;;;7.00;2.67;;;;;14.67;75.08;101509.16;5039902;28;45424;-49
2021/12/30 07:26:28;;;;;;;;;5.25;4.50;;;;;14.65;75.30;101507.44;5039969;28;46019;-51
2021/12/30 07:28:54;;;;;;;;;6.00;3.75;;;;;14.64;74.91;101501.25;5040019;28;45198;-49
2021/12/30 07:31:19;;;;;;;;;7.25;4.00;;;;;14.60;75.62;101505.72;5049710;28;45269;-50
2021/12/30 07:33:44;;;;;;;;;7.75;3.50;;;;;14.62;75.51;101513.63;5059955;28;45202;-47
2021/12/30 07:36:10;;;;;;;;;8.25;4.25;;;;;14.55;75.54;101512.88;5060209;28;45239;-46
2021/12/30 07:38:35;;;;;;;;;6.50;2.50;;;;;14.53;75.18;101509.38;5043272;28;45435;-49
2021/12/30 07:41:01;;;;;;;;;3.75;2.75;;;;;14.53;75.51;101516.44;5022046;28;45395;-49
2021/12/30 07:43:26;;;;;;;;;5.67;3.67;;;;;14.51;75.67;101521.75;5039667;28;45444;-49
2021/12/30 07:45:52;;;;;;;;;4.00;4.00;;;;;14.50;75.59;101521.78;5039724;28;46226;-48
2021/12/30 07:48:18;;;;;;;;;13.50;10.00;;;;;14.50;75.72;101508.56;5042874;28;45258;-50
2021/12/30 07:50:44;;;;;;;;;6.75;3.00;;;;;14.44;75.80;101515.72;5043406;28;45472;-50
2021/12/30 07:53:09;;;;;;;;;11.25;10.00;;;;;14.47;75.35;101515.63;5043141;28;45552;-52
2021/12/30 07:55:35;;;;;;;;;7.00;3.50;;;;;14.45;75.25;101511.28;5043017;28;45436;-50
2021/12/30 07:58:00;;;;;;;;;5.25;4.00;;;;;14.46;75.27;101515.66;5043199;28;45309;-49
2021/12/30 08:00:26;;;;;;;;;7.75;4.25;;;;;14.43;75.35;101518.38;5043355;28;45402;-50
2021/12/30 08:02:51;;;;;;;;;8.50;6.00;;;;;14.45;75.36;101532.44;5025211;28;45382;-49
2021/12/30 08:05:18;;;;;;;;;4.50;4.25;;;;;14.43;75.60;101536.91;5042936;28;45441;-51
2021/12/30 08:07:48;;;;;;;;;11.00;4.75;;;;;14.45;75.39;101540.38;5042897;28;45213;-47
2021/12/30 08:10:18;;;;;;;;;6.75;5.00;;;;;14.42;75.07;101543.06;5043211;28;45343;-48
2021/12/30 08:12:44;;;;;;;;;7.25;4.50;;;;;14.45;75.68;101558.88;5042768;28;45447;-49
2021/12/30 08:15:12;;;;;;;;;7.50;6.25;;;;;14.46;75.54;101563.28;5042721;28;46315;-51
2021/12/30 08:17:38;;;;;;;;;6.00;5.00;;;;;14.46;75.33;101557.97;5042644;28;45304;-48
2021/12/30 08:20:05;;;;;;;;;7.50;4.75;;;;;14.47;75.59;101567.66;5042947;28;45380;-51
2021/12/30 08:22:31;;;;;;;;;5.00;5.00;;;;;14.47;75.52;101578.25;5042649;28;45479;-51
2021/12/30 08:24:56;;;;;;;;;4.50;4.50;;;;;14.52;75.10;101572.88;5042680;28;45227;-50
2021/12/30 08:27:22;;;;;;;;;5.00;3.00;;;;;14.47;75.30;101571.16;5042707;28;45285;-50
2021/12/30 08:29:48;;;;;;;;;11.00;6.25;;;;;14.50;75.38;101579.97;5042701;28;45330;-49
2021/12/30 08:32:13;;;;;;;;;7.75;4.25;;;;;14.51;75.23;101582.56;5059881;28;45295;-49
2021/12/30 08:34:40;;;;;;;;;2.50;2.00;;;;;14.52;75.25;101589.59;5062848;28;45253;-48
2021/12/30 08:37:05;;;;;;;;;4.00;3.25;;;;;14.56;75.16;101593.09;5058317;28;45321;-50
2021/12/30 08:39:34;;;;;;;;;6.50;4.50;;;;;14.56;75.57;101595.72;5042596;28;45444;-52
2021/12/30 08:41:59;;;;;;;;;2.33;2.00;;;;;14.58;75.46;101608.03;5042466;28;45460;-49
2021/12/30 08:44:26;;;;;;;;;9.50;6.00;;;;;14.61;74.99;101604.44;5042245;28;46221;-50
2021/12/30 08:46:52;;;;;;;;;7.50;6.50;;;;;14.61;75.19;101613.25;5042294;28;45238;-49
2021/12/30 08:49:17;;;;;;;;;10.25;5.25;;;;;14.63;75.02;101614.09;5042593;28;45342;-48
2021/12/30 08:51:42;;;;;;;;;5.00;3.25;;;;;14.60;75.06;101611.53;5055511;28;45675;-50
2021/12/30 08:54:08;;;;;;;;;7.00;5.25;;;;;14.63;74.89;101614.09;5051819;28;45342;-48
2021/12/30 08:56:33;;;;;;;;;5.75;3.75;;;;;14.61;75.17;101609.75;5042174;28;45277;-51
2021/12/30 08:58:58;;;;;;;;;6.50;5.50;;;;;14.62;75.00;101612.34;5024309;28;45321;-48
2021/12/30 09:01:24;;;;;;;;;7.00;3.25;;;;;14.65;74.85;101613.25;5042080;28;45432;-47
2021/12/30 09:03:49;;;;;;;;;6.75;3.50;;;;;14.65;74.84;101618.53;5042259;28;45226;-48
2021/12/30 09:06:15;;;;;;;;;5.25;3.75;;;;;14.65;75.35;101613.25;5024103;28;45247;-53
2021/12/30 09:08:40;;;;;;;;;7.75;3.00;;;;;14.67;75.01;101617.59;5042350;28;45869;-49
2021/12/30 09:11:05;;;;;;;;;4.50;4.25;;;;;14.68;75.14;101613.19;5041896;28;45281;-50
2021/12/30 09:13:31;;;;;;;;;9.25;5.50;;;;;14.69;75.16;101614.94;5042038;28;46007;-50
2021/12/30 09:15:56;;;;;;;;;9.25;4.00;;;;;14.69;75.06;101618.47;5041619;28;45313;-50
2021/12/30 09:18:24;;;;;;;;;7.00;4.00;;;;;14.73;75.31;101616.59;5042051;28;45344;-47
2021/12/30 09:20:49;;;;;;;;;4.75;3.25;;;;;14.72;75.41;101622.81;5041848;28;45482;-48
2021/12/30 09:23:15;;;;;;;;;1.75;0.50;;;;;14.74;75.24;101618.34;5041846;28;46132;-49
2021/12/30 09:25:41;;;;;;;;;5.00;5.00;;;;;14.74;74.75;101619.25;5041595;28;45194;-51
2021/12/30 09:28:11;;;;;;;;;4.50;4.00;;;;;14.74;75.05;101621.00;5042092;28;45350;-49
2021/12/30 09:30:36;;;;;;;;;4.25;3.00;;;;;14.77;74.80;101628.91;5027423;28;45684;-50
2021/12/30 09:33:02;;;;;;;;;3.50;2.75;;;;;14.79;74.73;101616.50;5061654;28;46344;-50
2021/12/30 09:35:28;;;;;;;;;9.25;4.75;;;;;14.80;75.02;101612.97;5061732;28;45312;-51
2021/12/30 09:37:54;;;;;;;;;4.50;4.50;;;;;14.80;74.87;101628.84;5043742;28;45359;-48
2021/12/30 09:40:20;;;;;;;;;7.33;2.67;;;;;14.77;75.23;101615.69;5061208;28;45362;-47
2021/12/30 09:42:53;;;;;;;;;9.00;4.00;;;;;14.84;74.88;101629.66;5043712;28;46219;-49
2021/12/30 09:45:19;;;;;;;;;6.25;5.50;;;;;14.86;75.25;101625.22;5061287;28;45315;-49
2021/12/30 09:47:52;;;;;;;;;6.25;3.00;;;;;14.88;75.13;101629.59;5061684;28;45316;-48
2021/12/30 09:50:22;;;;;;;;;7.75;3.50;;;;;14.88;75.04;101626.94;5061456;28;45257;-49
2021/12/30 09:52:47;;;;;;;;;2.50;2.50;;;;;14.91;74.90;101637.47;5043274;28;47177;-52
2021/12/30 09:55:12;;;;;;;;;4.50;4.25;;;;;14.94;75.13;101642.72;5061465;28;45230;-47
2021/12/30 09:57:40;;;;;;;;;5.25;3.25;;;;;14.98;74.84;101642.63;5061590;28;45151;-47
2021/12/30 10:00:09;;;;;;;;;8.25;5.00;;;;;15.04;75.15;101653.13;5061022;28;45337;-53
2021/12/30 10:02:34;;;;;;;;;8.50;5.25;;;;;15.04;74.66;101646.06;5060968;28;46602;-49
2021/12/30 10:05:11;;;;;;;;;5.25;1.50;;;;;15.07;75.17;101653.06;5061155;28;45367;-49
2021/12/30 10:07:39;;;;;;;;;8.25;5.25;;;;;15.09;75.12;101636.25;5061212;28;45237;-47
2021/12/30 10:10:31;;;;;;;;;9.75;4.50;;;;;15.08;75.25;101645.09;5060525;28;45249;-51
2021/12/30 10:12:58;;;;;;;;;6.75;3.00;;;;;15.15;74.98;101639.69;5060863;28;46142;-49
2021/12/30 10:15:26;;;;;;;;;8.50;7.00;;;;;15.17;75.03;101645.81;5030159;28;45377;-50
2021/12/30 10:17:59;;;;;;;;;8.25;5.50;;;;;15.19;75.18;101649.31;5060940;28;45314;-49
2021/12/30 10:20:28;;;;;;;;;9.67;6.00;;;;;15.22;75.11;101655.44;5043744;28;45418;-51
2021/12/30 10:23:06;;;;;;;;;4.67;3.33;;;;;15.21;74.85;101658.97;5060986;28;46184;-52
2021/12/30 10:25:35;;;;;;;;;8.50;3.75;;;;;15.25;75.13;101663.28;5042591;28;45507;-52
2021/12/30 10:28:36;;;;;;;;;5.50;4.00;;;;;15.27;74.89;101664.16;5061067;28;45388;-52
2021/12/30 10:31:10;;;;;;;;;8.75;5.50;;;;;15.31;75.17;101666.72;5052700;28;45381;-48
2021/12/30 10:33:36;;;;;;;;;4.50;3.25;;;;;15.33;75.03;101663.16;5060676;28;45264;-53
2021/12/30 10:36:01;;;;;;;;;4.33;2.67;;;;;15.33;75.09;101665.78;5060739;28;45213;-50
2021/12/30 10:38:30;;;;;;;;;10.00;5.00;;;;;15.36;74.91;101652.50;5045454;28;45163;-51
2021/12/30 10:41:01;;;;;;;;;8.25;5.50;;;;;15.35;75.08;101658.72;5040613;28;45334;-49
2021/12/30 10:43:51;;;;;;;;;15.50;11.25;;;;;15.42;75.09;101646.19;5040210;28;46360;-50
2021/12/30 10:46:26;;;;;;;;;5.50;4.00;;;;;15.44;75.12;101645.31;5040095;28;45552;-52
2021/12/30 10:49:05;;;;;;;;;8.00;2.67;;;;;15.48;75.18;101654.03;5040749;28;45304;-48
2021/12/30 10:51:48;;;;;;;;;5.00;4.00;;;;;15.53;75.20;101649.50;5048589;28;46052;-51
2021/12/30 10:54:23;;;;;;;;;7.50;5.00;;;;;15.60;75.00;101652.94;5040125;28;46487;-52
2021/12/30 10:57:07;;;;;;;;;7.75;6.25;;;;;15.61;75.27;101652.03;5040077;28;45254;-53
2021/12/30 10:59:49;;;;;;;;;7.00;4.50;;;;;15.64;75.31;101653.75;5039823;28;45350;-50
2021/12/30 11:02:21;;;;;;;;;6.00;5.25;;;;;15.63;75.33;101657.28;5040442;28;45645;-47
2021/12/30 11:04:49;;;;;;;;;6.25;3.25;;;;;15.69;74.66;101657.16;5039786;28;46121;-50
2021/12/30 11:07:27;;;;;;;;;5.50;5.25;;;;;15.67;75.08;101646.59;5040203;28;45245;-51
2021/12/30 11:09:58;;;;;;;;;11.00;7.00;;;;;15.71;75.29;101650.91;5040074;28;45486;-51
2021/12/30 11:12:32;;;;;;;;;8.67;3.67;;;;;15.73;75.33;101643.78;5039996;28;45499;-52
2021/12/30 11:15:05;;;;;;;;;5.50;4.00;;;;;15.79;74.98;101634.00;5039851;28;46377;-48
2021/12/30 11:17:36;;;;;;;;;4.25;2.75;;;;;15.81;74.62;101630.41;5039839;28;45226;-49
2021/12/30 11:20:06;;;;;;;;;5.33;3.00;;;;;15.84;75.09;101625.06;5040100;28;45589;-51
2021/12/30 11:22:38;;;;;;;;;4.50;3.25;;;;;15.90;75.08;101616.09;5038748;28;45389;-48
2021/12/30 11:25:07;;;;;;;;;5.25;4.25;;;;;15.93;74.88;101630.13;5021755;28;47187;-51
2021/12/30 11:27:34;;;;;;;;;5.75;3.25;;;;;15.91;75.11;101636.38;5039726;28;45233;-50